sensor_id;sensor_type;location;lat;lon;timestamp;P1;durP1;ratioP1;P2;durP2;ratioP2
55575;SDS011;41437;45.478;9.116;2022-12-08T00:01:05;52.20;;;27.83;;
55575;SDS011;41437;45.478;9.116;2022-12-08T00:04:09;49.13;;;27.98;;
55575;SDS011;41437;45.478;9.116;2022-12-08T00:07:11;48.77;;;27.53;;
55575;SDS011;41437;45.478;9.116;2022-12-08T00:10:30;54.65;;;29.33;;
55575;SDS011;41437;45.478;9.116;2022-12-08T00:13:32;51.50;;;28.75;;
55575;SDS011;41437;45.478;9.116;2022-12-08T00:16:34;49.38;;;28.05;;
55575;SDS011;41437;45.478;9.116;2022-12-08T00:19:37;50.65;;;28.63;;
55575;SDS011;41437;45.478;9.116;2022-12-08T00:22:39;48.47;;;27.63;;
55575;SDS011;41437;45.478;9.116;2022-12-08T00:25:45;50.28;;;28.33;;
55575;SDS011;41437;45.478;9.116;2022-12-08T00:28:47;47.55;;;27.52;;
55575;SDS011;41437;45.478;9.116;2022-12-08T00:31:49;46.70;;;26.08;;
55575;SDS011;41437;45.478;9.116;2022-12-08T00:34:52;49.88;;;27.58;;
55575;SDS011;41437;45.478;9.116;2022-12-08T00:37:53;44.50;;;27.15;;
55575;SDS011;41437;45.478;9.116;2022-12-08T00:40:55;43.08;;;25.77;;
55575;SDS011;41437;45.478;9.116;2022-12-08T00:43:57;42.35;;;26.27;;
55575;SDS011;41437;45.478;9.116;2022-12-08T00:46:58;39.50;;;25.15;;
55575;SDS011;41437;45.478;9.116;2022-12-08T00:50:01;38.72;;;24.42;;
55575;SDS011;41437;45.478;9.116;2022-12-08T00:53:03;40.97;;;26.50;;
55575;SDS011;41437;45.478;9.116;2022-12-08T00:56:05;42.15;;;27.13;;
55575;SDS011;41437;45.478;9.116;2022-12-08T00:59:07;40.47;;;24.55;;
55575;SDS011;41437;45.478;9.116;2022-12-08T01:02:09;39.75;;;24.48;;
55575;SDS011;41437;45.478;9.116;2022-12-08T01:05:13;40.08;;;25.80;;
55575;SDS011;41437;45.478;9.116;2022-12-08T01:08:14;43.08;;;26.17;;
55575;SDS011;41437;45.478;9.116;2022-12-08T01:11:30;43.42;;;25.70;;
55575;SDS011;41437;45.478;9.116;2022-12-08T01:14:32;44.20;;;27.00;;
55575;SDS011;41437;45.478;9.116;2022-12-08T01:17:35;41.70;;;26.10;;
55575;SDS011;41437;45.478;9.116;2022-12-08T01:20:38;40.70;;;25.75;;
55575;SDS011;41437;45.478;9.116;2022-12-08T01:23:40;38.42;;;25.17;;
55575;SDS011;41437;45.478;9.116;2022-12-08T01:26:42;39.35;;;25.40;;
55575;SDS011;41437;45.478;9.116;2022-12-08T01:29:44;39.83;;;24.52;;
55575;SDS011;41437;45.478;9.116;2022-12-08T01:32:46;43.13;;;25.42;;
55575;SDS011;41437;45.478;9.116;2022-12-08T01:35:49;38.20;;;24.10;;
55575;SDS011;41437;45.478;9.116;2022-12-08T01:38:52;38.95;;;24.98;;
55575;SDS011;41437;45.478;9.116;2022-12-08T01:41:55;38.80;;;24.95;;
55575;SDS011;41437;45.478;9.116;2022-12-08T01:44:58;39.70;;;24.58;;
55575;SDS011;41437;45.478;9.116;2022-12-08T01:48:02;37.83;;;24.40;;
55575;SDS011;41437;45.478;9.116;2022-12-08T01:51:08;40.13;;;24.90;;
55575;SDS011;41437;45.478;9.116;2022-12-08T01:54:10;38.20;;;24.20;;
55575;SDS011;41437;45.478;9.116;2022-12-08T01:57:13;38.63;;;24.70;;
55575;SDS011;41437;45.478;9.116;2022-12-08T02:00:19;38.03;;;23.70;;
55575;SDS011;41437;45.478;9.116;2022-12-08T02:03:23;37.80;;;24.45;;
55575;SDS011;41437;45.478;9.116;2022-12-08T02:06:30;39.35;;;24.17;;
55575;SDS011;41437;45.478;9.116;2022-12-08T02:09:34;37.05;;;23.58;;
55575;SDS011;41437;45.478;9.116;2022-12-08T02:12:36;37.55;;;24.33;;
55575;SDS011;41437;45.478;9.116;2022-12-08T02:15:40;38.15;;;23.75;;
55575;SDS011;41437;45.478;9.116;2022-12-08T02:18:55;36.88;;;23.20;;
55575;SDS011;41437;45.478;9.116;2022-12-08T02:22:22;39.17;;;24.30;;
55575;SDS011;41437;45.478;9.116;2022-12-08T02:25:36;39.50;;;24.65;;
55575;SDS011;41437;45.478;9.116;2022-12-08T02:28:50;39.85;;;25.17;;
55575;SDS011;41437;45.478;9.116;2022-12-08T02:32:12;36.45;;;24.15;;
55575;SDS011;41437;45.478;9.116;2022-12-08T02:35:35;37.30;;;22.95;;
55575;SDS011;41437;45.478;9.116;2022-12-08T02:38:45;38.75;;;24.27;;
55575;SDS011;41437;45.478;9.116;2022-12-08T02:41:57;36.97;;;24.20;;
55575;SDS011;41437;45.478;9.116;2022-12-08T02:45:06;39.17;;;24.63;;
55575;SDS011;41437;45.478;9.116;2022-12-08T02:48:12;41.67;;;26.08;;
55575;SDS011;41437;45.478;9.116;2022-12-08T02:51:16;39.15;;;25.05;;
55575;SDS011;41437;45.478;9.116;2022-12-08T02:54:17;41.92;;;25.80;;
55575;SDS011;41437;45.478;9.116;2022-12-08T02:57:21;43.22;;;26.27;;
55575;SDS011;41437;45.478;9.116;2022-12-08T03:00:33;44.47;;;27.70;;
55575;SDS011;41437;45.478;9.116;2022-12-08T03:03:44;45.63;;;27.25;;
55575;SDS011;41437;45.478;9.116;2022-12-08T03:07:01;48.22;;;28.13;;
55575;SDS011;41437;45.478;9.116;2022-12-08T03:10:09;47.30;;;28.52;;
55575;SDS011;41437;45.478;9.116;2022-12-08T03:16:40;50.75;;;30.08;;
55575;SDS011;41437;45.478;9.116;2022-12-08T03:19:46;52.85;;;29.50;;
55575;SDS011;41437;45.478;9.116;2022-12-08T03:22:51;48.38;;;28.10;;
55575;SDS011;41437;45.478;9.116;2022-12-08T03:25:56;52.72;;;29.15;;
55575;SDS011;41437;45.478;9.116;2022-12-08T03:29:04;51.65;;;30.15;;
55575;SDS011;41437;45.478;9.116;2022-12-08T03:32:07;48.58;;;29.05;;
55575;SDS011;41437;45.478;9.116;2022-12-08T03:35:14;52.20;;;29.55;;
55575;SDS011;41437;45.478;9.116;2022-12-08T03:38:20;48.10;;;27.67;;
55575;SDS011;41437;45.478;9.116;2022-12-08T03:41:22;50.78;;;28.67;;
55575;SDS011;41437;45.478;9.116;2022-12-08T03:44:23;51.85;;;27.95;;
55575;SDS011;41437;45.478;9.116;2022-12-08T03:47:25;49.65;;;28.15;;
55575;SDS011;41437;45.478;9.116;2022-12-08T03:50:27;49.13;;;27.38;;
55575;SDS011;41437;45.478;9.116;2022-12-08T03:53:30;51.78;;;30.35;;
55575;SDS011;41437;45.478;9.116;2022-12-08T03:56:32;52.13;;;28.38;;
55575;SDS011;41437;45.478;9.116;2022-12-08T03:59:35;51.78;;;29.30;;
55575;SDS011;41437;45.478;9.116;2022-12-08T04:02:37;53.38;;;27.95;;
55575;SDS011;41437;45.478;9.116;2022-12-08T04:05:39;49.22;;;27.90;;
55575;SDS011;41437;45.478;9.116;2022-12-08T04:08:42;50.45;;;27.50;;
55575;SDS011;41437;45.478;9.116;2022-12-08T04:11:44;50.88;;;28.42;;
55575;SDS011;41437;45.478;9.116;2022-12-08T04:14:45;54.05;;;27.50;;
55575;SDS011;41437;45.478;9.116;2022-12-08T04:17:47;49.78;;;27.48;;
55575;SDS011;41437;45.478;9.116;2022-12-08T04:20:49;51.40;;;27.63;;
55575;SDS011;41437;45.478;9.116;2022-12-08T04:23:52;50.53;;;26.98;;
55575;SDS011;41437;45.478;9.116;2022-12-08T04:26:55;52.80;;;27.83;;
55575;SDS011;41437;45.478;9.116;2022-12-08T04:30:11;43.70;;;25.33;;
55575;SDS011;41437;45.478;9.116;2022-12-08T04:33:13;49.25;;;25.80;;
55575;SDS011;41437;45.478;9.116;2022-12-08T04:36:15;47.53;;;26.02;;
55575;SDS011;41437;45.478;9.116;2022-12-08T04:39:18;48.80;;;26.70;;
55575;SDS011;41437;45.478;9.116;2022-12-08T04:42:20;48.30;;;25.08;;
55575;SDS011;41437;45.478;9.116;2022-12-08T04:45:22;46.45;;;25.42;;
55575;SDS011;41437;45.478;9.116;2022-12-08T04:48:23;41.78;;;24.05;;
55575;SDS011;41437;45.478;9.116;2022-12-08T04:51:25;43.20;;;23.50;;
55575;SDS011;41437;45.478;9.116;2022-12-08T04:54:28;43.33;;;24.52;;
55575;SDS011;41437;45.478;9.116;2022-12-08T04:57:30;43.83;;;24.53;;
55575;SDS011;41437;45.478;9.116;2022-12-08T05:00:32;44.40;;;24.27;;
55575;SDS011;41437;45.478;9.116;2022-12-08T05:03:34;42.47;;;24.20;;
55575;SDS011;41437;45.478;9.116;2022-12-08T05:06:35;40.92;;;23.58;;
55575;SDS011;41437;45.478;9.116;2022-12-08T05:09:38;40.33;;;23.05;;
55575;SDS011;41437;45.478;9.116;2022-12-08T05:12:40;37.40;;;22.17;;
55575;SDS011;41437;45.478;9.116;2022-12-08T05:15:42;41.85;;;23.17;;
55575;SDS011;41437;45.478;9.116;2022-12-08T05:18:43;38.72;;;22.30;;
55575;SDS011;41437;45.478;9.116;2022-12-08T05:21:45;38.10;;;22.50;;
55575;SDS011;41437;45.478;9.116;2022-12-08T05:24:48;41.55;;;23.05;;
55575;SDS011;41437;45.478;9.116;2022-12-08T05:27:50;38.35;;;21.55;;
55575;SDS011;41437;45.478;9.116;2022-12-08T05:30:51;37.63;;;22.00;;
55575;SDS011;41437;45.478;9.116;2022-12-08T05:33:55;38.42;;;22.38;;
55575;SDS011;41437;45.478;9.116;2022-12-08T05:36:56;37.83;;;21.65;;
55575;SDS011;41437;45.478;9.116;2022-12-08T05:39:59;35.53;;;21.33;;
55575;SDS011;41437;45.478;9.116;2022-12-08T05:43:01;36.80;;;22.05;;
55575;SDS011;41437;45.478;9.116;2022-12-08T05:46:03;35.75;;;21.60;;
55575;SDS011;41437;45.478;9.116;2022-12-08T05:49:05;38.88;;;23.17;;
55575;SDS011;41437;45.478;9.116;2022-12-08T05:52:06;35.65;;;22.27;;
55575;SDS011;41437;45.478;9.116;2022-12-08T05:55:10;38.58;;;22.30;;
55575;SDS011;41437;45.478;9.116;2022-12-08T05:58:12;39.63;;;23.60;;
55575;SDS011;41437;45.478;9.116;2022-12-08T06:01:19;41.38;;;24.58;;
55575;SDS011;41437;45.478;9.116;2022-12-08T06:04:22;41.15;;;22.85;;
55575;SDS011;41437;45.478;9.116;2022-12-08T06:07:23;45.42;;;24.45;;
55575;SDS011;41437;45.478;9.116;2022-12-08T06:10:26;45.67;;;25.52;;
55575;SDS011;41437;45.478;9.116;2022-12-08T06:13:28;45.63;;;24.83;;
55575;SDS011;41437;45.478;9.116;2022-12-08T06:16:30;45.88;;;25.60;;
55575;SDS011;41437;45.478;9.116;2022-12-08T06:19:31;46.38;;;25.05;;
55575;SDS011;41437;45.478;9.116;2022-12-08T06:22:33;46.63;;;25.30;;
55575;SDS011;41437;45.478;9.116;2022-12-08T06:25:36;42.97;;;23.80;;
55575;SDS011;41437;45.478;9.116;2022-12-08T06:28:38;45.25;;;25.55;;
55575;SDS011;41437;45.478;9.116;2022-12-08T06:31:40;41.42;;;24.10;;
55575;SDS011;41437;45.478;9.116;2022-12-08T06:34:41;43.03;;;23.67;;
55575;SDS011;41437;45.478;9.116;2022-12-08T06:37:43;38.90;;;23.02;;
55575;SDS011;41437;45.478;9.116;2022-12-08T06:40:52;39.13;;;23.20;;
55575;SDS011;41437;45.478;9.116;2022-12-08T06:43:54;43.78;;;24.10;;
55575;SDS011;41437;45.478;9.116;2022-12-08T06:46:57;42.67;;;22.75;;
55575;SDS011;41437;45.478;9.116;2022-12-08T06:49:58;41.58;;;23.52;;
55575;SDS011;41437;45.478;9.116;2022-12-08T06:53:00;44.60;;;23.13;;
55575;SDS011;41437;45.478;9.116;2022-12-08T06:56:04;39.65;;;22.92;;
55575;SDS011;41437;45.478;9.116;2022-12-08T06:59:07;41.85;;;23.83;;
55575;SDS011;41437;45.478;9.116;2022-12-08T07:02:09;39.58;;;23.33;;
55575;SDS011;41437;45.478;9.116;2022-12-08T07:05:12;43.35;;;23.17;;
55575;SDS011;41437;45.478;9.116;2022-12-08T07:08:13;42.20;;;23.55;;
55575;SDS011;41437;45.478;9.116;2022-12-08T07:11:17;38.55;;;23.05;;
55575;SDS011;41437;45.478;9.116;2022-12-08T07:14:19;35.33;;;20.75;;
55575;SDS011;41437;45.478;9.116;2022-12-08T07:17:23;38.70;;;22.88;;
55575;SDS011;41437;45.478;9.116;2022-12-08T07:20:25;38.72;;;22.98;;
55575;SDS011;41437;45.478;9.116;2022-12-08T07:23:27;39.45;;;22.65;;
55575;SDS011;41437;45.478;9.116;2022-12-08T07:26:30;36.90;;;21.52;;
55575;SDS011;41437;45.478;9.116;2022-12-08T07:29:32;38.38;;;23.27;;
55575;SDS011;41437;45.478;9.116;2022-12-08T07:32:34;36.05;;;21.40;;
55575;SDS011;41437;45.478;9.116;2022-12-08T07:35:38;36.00;;;21.80;;
55575;SDS011;41437;45.478;9.116;2022-12-08T07:38:39;37.33;;;21.23;;
55575;SDS011;41437;45.478;9.116;2022-12-08T07:41:43;38.78;;;22.60;;
55575;SDS011;41437;45.478;9.116;2022-12-08T07:44:44;42.08;;;22.80;;
55575;SDS011;41437;45.478;9.116;2022-12-08T07:47:46;43.95;;;23.73;;
55575;SDS011;41437;45.478;9.116;2022-12-08T07:50:48;46.90;;;24.17;;
55575;SDS011;41437;45.478;9.116;2022-12-08T07:53:50;41.22;;;22.63;;
55575;SDS011;41437;45.478;9.116;2022-12-08T07:56:55;39.35;;;22.70;;
55575;SDS011;41437;45.478;9.116;2022-12-08T07:59:57;44.45;;;24.38;;
55575;SDS011;41437;45.478;9.116;2022-12-08T08:02:59;46.58;;;23.27;;
55575;SDS011;41437;45.478;9.116;2022-12-08T08:06:02;43.63;;;24.10;;
55575;SDS011;41437;45.478;9.116;2022-12-08T08:09:04;45.53;;;24.75;;
55575;SDS011;41437;45.478;9.116;2022-12-08T08:12:09;47.07;;;26.03;;
55575;SDS011;41437;45.478;9.116;2022-12-08T08:15:11;45.37;;;24.37;;
55575;SDS011;41437;45.478;9.116;2022-12-08T08:18:12;49.90;;;24.63;;
55575;SDS011;41437;45.478;9.116;2022-12-08T08:21:14;45.45;;;24.83;;
55575;SDS011;41437;45.478;9.116;2022-12-08T08:24:17;48.83;;;25.08;;
55575;SDS011;41437;45.478;9.116;2022-12-08T08:27:20;47.63;;;25.35;;
55575;SDS011;41437;45.478;9.116;2022-12-08T08:30:24;53.83;;;25.58;;
55575;SDS011;41437;45.478;9.116;2022-12-08T08:33:25;42.05;;;24.10;;
55575;SDS011;41437;45.478;9.116;2022-12-08T08:36:27;45.00;;;24.35;;
55575;SDS011;41437;45.478;9.116;2022-12-08T08:39:29;42.03;;;23.52;;
55575;SDS011;41437;45.478;9.116;2022-12-08T08:42:32;42.38;;;22.90;;
55575;SDS011;41437;45.478;9.116;2022-12-08T08:45:34;41.87;;;23.87;;
55575;SDS011;41437;45.478;9.116;2022-12-08T08:48:36;41.78;;;23.27;;
55575;SDS011;41437;45.478;9.116;2022-12-08T08:51:38;43.83;;;24.58;;
55575;SDS011;41437;45.478;9.116;2022-12-08T08:54:40;44.92;;;25.05;;
55575;SDS011;41437;45.478;9.116;2022-12-08T08:57:43;41.45;;;24.25;;
55575;SDS011;41437;45.478;9.116;2022-12-08T09:00:44;39.90;;;23.63;;
55575;SDS011;41437;45.478;9.116;2022-12-08T09:03:46;39.60;;;24.05;;
55575;SDS011;41437;45.478;9.116;2022-12-08T09:06:49;41.58;;;23.95;;
55575;SDS011;41437;45.478;9.116;2022-12-08T09:09:50;40.75;;;23.92;;
55575;SDS011;41437;45.478;9.116;2022-12-08T09:12:53;44.80;;;25.67;;
55575;SDS011;41437;45.478;9.116;2022-12-08T09:15:55;47.40;;;26.15;;
55575;SDS011;41437;45.478;9.116;2022-12-08T09:18:56;46.47;;;26.35;;
55575;SDS011;41437;45.478;9.116;2022-12-08T09:21:58;49.42;;;26.70;;
55575;SDS011;41437;45.478;9.116;2022-12-08T09:25:00;46.75;;;26.55;;
55575;SDS011;41437;45.478;9.116;2022-12-08T09:28:03;45.33;;;26.77;;
55575;SDS011;41437;45.478;9.116;2022-12-08T09:34:07;44.97;;;25.02;;
55575;SDS011;41437;45.478;9.116;2022-12-08T09:37:10;47.15;;;26.35;;
55575;SDS011;41437;45.478;9.116;2022-12-08T09:40:14;44.40;;;26.05;;
55575;SDS011;41437;45.478;9.116;2022-12-08T09:43:23;44.72;;;26.25;;
55575;SDS011;41437;45.478;9.116;2022-12-08T09:46:42;47.60;;;25.67;;
55575;SDS011;41437;45.478;9.116;2022-12-08T09:49:45;47.22;;;26.42;;
55575;SDS011;41437;45.478;9.116;2022-12-08T09:52:55;44.20;;;25.63;;
55575;SDS011;41437;45.478;9.116;2022-12-08T09:56:01;43.75;;;25.85;;
55575;SDS011;41437;45.478;9.116;2022-12-08T09:59:14;42.40;;;26.85;;
55575;SDS011;41437;45.478;9.116;2022-12-08T10:02:23;44.63;;;25.70;;
55575;SDS011;41437;45.478;9.116;2022-12-08T10:05:25;43.87;;;26.73;;
55575;SDS011;41437;45.478;9.116;2022-12-08T10:08:32;43.38;;;25.52;;
55575;SDS011;41437;45.478;9.116;2022-12-08T10:11:43;42.72;;;25.98;;
55575;SDS011;41437;45.478;9.116;2022-12-08T10:14:54;49.20;;;27.02;;
55575;SDS011;41437;45.478;9.116;2022-12-08T10:18:02;45.92;;;26.67;;
55575;SDS011;41437;45.478;9.116;2022-12-08T10:21:13;49.95;;;28.25;;
55575;SDS011;41437;45.478;9.116;2022-12-08T10:24:21;48.15;;;28.90;;
55575;SDS011;41437;45.478;9.116;2022-12-08T10:27:26;51.58;;;31.02;;
55575;SDS011;41437;45.478;9.116;2022-12-08T10:30:30;53.30;;;30.88;;
55575;SDS011;41437;45.478;9.116;2022-12-08T10:33:32;50.78;;;30.98;;
55575;SDS011;41437;45.478;9.116;2022-12-08T10:36:43;51.33;;;30.02;;
55575;SDS011;41437;45.478;9.116;2022-12-08T10:39:46;56.55;;;31.17;;
55575;SDS011;41437;45.478;9.116;2022-12-08T10:42:48;57.55;;;33.10;;
55575;SDS011;41437;45.478;9.116;2022-12-08T10:45:53;56.38;;;31.42;;
55575;SDS011;41437;45.478;9.116;2022-12-08T10:49:09;55.33;;;31.40;;
55575;SDS011;41437;45.478;9.116;2022-12-08T10:52:20;52.55;;;30.92;;
55575;SDS011;41437;45.478;9.116;2022-12-08T10:55:23;52.88;;;30.80;;
55575;SDS011;41437;45.478;9.116;2022-12-08T10:58:26;52.20;;;30.48;;
55575;SDS011;41437;45.478;9.116;2022-12-08T11:01:33;56.28;;;30.70;;
55575;SDS011;41437;45.478;9.116;2022-12-08T11:04:38;51.85;;;30.35;;
55575;SDS011;41437;45.478;9.116;2022-12-08T11:07:44;50.75;;;31.13;;
55575;SDS011;41437;45.478;9.116;2022-12-08T11:10:47;51.05;;;29.42;;
55575;SDS011;41437;45.478;9.116;2022-12-08T11:13:49;52.13;;;30.13;;
55575;SDS011;41437;45.478;9.116;2022-12-08T11:16:54;53.37;;;30.70;;
55575;SDS011;41437;45.478;9.116;2022-12-08T11:20:03;47.15;;;28.95;;
55575;SDS011;41437;45.478;9.116;2022-12-08T11:23:21;52.72;;;29.77;;
55575;SDS011;41437;45.478;9.116;2022-12-08T11:26:26;49.67;;;29.20;;
55575;SDS011;41437;45.478;9.116;2022-12-08T11:29:33;49.72;;;30.10;;
55575;SDS011;41437;45.478;9.116;2022-12-08T11:32:37;51.15;;;30.48;;
55575;SDS011;41437;45.478;9.116;2022-12-08T11:35:41;52.40;;;30.48;;
55575;SDS011;41437;45.478;9.116;2022-12-08T11:38:46;55.00;;;30.55;;
55575;SDS011;41437;45.478;9.116;2022-12-08T11:41:51;52.88;;;30.23;;
55575;SDS011;41437;45.478;9.116;2022-12-08T11:44:57;49.35;;;30.17;;
55575;SDS011;41437;45.478;9.116;2022-12-08T11:48:02;50.88;;;29.35;;
55575;SDS011;41437;45.478;9.116;2022-12-08T11:51:10;49.67;;;29.10;;
55575;SDS011;41437;45.478;9.116;2022-12-08T11:54:17;47.05;;;28.45;;
55575;SDS011;41437;45.478;9.116;2022-12-08T11:57:24;49.40;;;29.73;;
55575;SDS011;41437;45.478;9.116;2022-12-08T12:00:28;45.38;;;28.85;;
55575;SDS011;41437;45.478;9.116;2022-12-08T12:03:33;45.60;;;28.75;;
55575;SDS011;41437;45.478;9.116;2022-12-08T12:13:53;44.05;;;28.17;;
55575;SDS011;41437;45.478;9.116;2022-12-08T12:17:08;52.22;;;30.05;;
55575;SDS011;41437;45.478;9.116;2022-12-08T12:20:33;45.80;;;29.02;;
55575;SDS011;41437;45.478;9.116;2022-12-08T12:23:40;45.22;;;28.73;;
55575;SDS011;41437;45.478;9.116;2022-12-08T12:26:49;47.78;;;30.02;;
55575;SDS011;41437;45.478;9.116;2022-12-08T12:29:57;45.13;;;28.52;;
55575;SDS011;41437;45.478;9.116;2022-12-08T12:33:01;42.47;;;27.95;;
55575;SDS011;41437;45.478;9.116;2022-12-08T12:36:10;41.83;;;27.40;;
55575;SDS011;41437;45.478;9.116;2022-12-08T12:39:13;45.13;;;28.85;;
55575;SDS011;41437;45.478;9.116;2022-12-08T12:42:33;43.67;;;28.25;;
55575;SDS011;41437;45.478;9.116;2022-12-08T12:45:38;44.85;;;28.02;;
55575;SDS011;41437;45.478;9.116;2022-12-08T12:48:42;44.53;;;27.10;;
55575;SDS011;41437;45.478;9.116;2022-12-08T12:51:45;43.53;;;27.95;;
55575;SDS011;41437;45.478;9.116;2022-12-08T12:58:21;44.45;;;27.83;;
55575;SDS011;41437;45.478;9.116;2022-12-08T13:01:47;45.78;;;29.15;;
55575;SDS011;41437;45.478;9.116;2022-12-08T13:04:56;44.70;;;29.98;;
55575;SDS011;41437;45.478;9.116;2022-12-08T13:08:01;46.67;;;28.55;;
55575;SDS011;41437;45.478;9.116;2022-12-08T13:11:07;43.90;;;29.25;;
55575;SDS011;41437;45.478;9.116;2022-12-08T13:14:20;43.00;;;28.33;;
55575;SDS011;41437;45.478;9.116;2022-12-08T13:17:27;40.47;;;26.85;;
55575;SDS011;41437;45.478;9.116;2022-12-08T13:20:33;39.35;;;26.52;;
55575;SDS011;41437;45.478;9.116;2022-12-08T13:23:44;40.75;;;27.77;;
55575;SDS011;41437;45.478;9.116;2022-12-08T13:26:47;40.60;;;27.25;;
55575;SDS011;41437;45.478;9.116;2022-12-08T13:29:59;40.07;;;26.23;;
55575;SDS011;41437;45.478;9.116;2022-12-08T13:33:39;38.88;;;26.13;;
55575;SDS011;41437;45.478;9.116;2022-12-08T13:36:43;43.22;;;28.02;;
55575;SDS011;41437;45.478;9.116;2022-12-08T13:39:54;39.70;;;26.50;;
55575;SDS011;41437;45.478;9.116;2022-12-08T13:43:03;41.03;;;27.35;;
55575;SDS011;41437;45.478;9.116;2022-12-08T13:46:10;39.45;;;27.25;;
55575;SDS011;41437;45.478;9.116;2022-12-08T13:49:15;40.90;;;27.35;;
55575;SDS011;41437;45.478;9.116;2022-12-08T13:52:25;39.67;;;26.60;;
55575;SDS011;41437;45.478;9.116;2022-12-08T13:55:36;40.10;;;25.45;;
55575;SDS011;41437;45.478;9.116;2022-12-08T13:58:41;37.60;;;26.42;;
55575;SDS011;41437;45.478;9.116;2022-12-08T14:01:43;39.50;;;26.00;;
55575;SDS011;41437;45.478;9.116;2022-12-08T14:04:47;36.65;;;25.27;;
55575;SDS011;41437;45.478;9.116;2022-12-08T14:07:50;37.45;;;24.88;;
55575;SDS011;41437;45.478;9.116;2022-12-08T14:10:58;38.40;;;24.77;;
55575;SDS011;41437;45.478;9.116;2022-12-08T14:14:03;37.25;;;24.35;;
55575;SDS011;41437;45.478;9.116;2022-12-08T14:17:10;34.20;;;23.27;;
55575;SDS011;41437;45.478;9.116;2022-12-08T14:20:17;34.63;;;23.83;;
55575;SDS011;41437;45.478;9.116;2022-12-08T14:23:22;33.58;;;23.08;;
55575;SDS011;41437;45.478;9.116;2022-12-08T14:26:25;36.05;;;23.25;;
55575;SDS011;41437;45.478;9.116;2022-12-08T14:29:36;35.20;;;23.05;;
55575;SDS011;41437;45.478;9.116;2022-12-08T14:32:41;35.35;;;22.95;;
55575;SDS011;41437;45.478;9.116;2022-12-08T14:35:48;36.20;;;23.70;;
55575;SDS011;41437;45.478;9.116;2022-12-08T14:38:52;36.63;;;22.70;;
55575;SDS011;41437;45.478;9.116;2022-12-08T14:45:03;32.03;;;21.80;;
55575;SDS011;41437;45.478;9.116;2022-12-08T14:48:20;34.90;;;23.23;;
55575;SDS011;41437;45.478;9.116;2022-12-08T14:51:25;38.25;;;24.13;;
55575;SDS011;41437;45.478;9.116;2022-12-08T14:54:31;34.75;;;22.83;;
55575;SDS011;41437;45.478;9.116;2022-12-08T14:57:34;36.75;;;24.75;;
55575;SDS011;41437;45.478;9.116;2022-12-08T15:00:36;39.00;;;23.93;;
55575;SDS011;41437;45.478;9.116;2022-12-08T15:03:44;36.83;;;24.42;;
55575;SDS011;41437;45.478;9.116;2022-12-08T15:06:49;37.83;;;25.05;;
55575;SDS011;41437;45.478;9.116;2022-12-08T15:10:09;37.72;;;24.38;;
55575;SDS011;41437;45.478;9.116;2022-12-08T15:13:21;40.45;;;24.52;;
55575;SDS011;41437;45.478;9.116;2022-12-08T15:16:27;36.80;;;23.33;;
55575;SDS011;41437;45.478;9.116;2022-12-08T15:19:32;39.15;;;25.17;;
55575;SDS011;41437;45.478;9.116;2022-12-08T15:22:34;40.58;;;24.65;;
55575;SDS011;41437;45.478;9.116;2022-12-08T15:25:36;36.70;;;24.38;;
55575;SDS011;41437;45.478;9.116;2022-12-08T15:28:39;40.47;;;25.75;;
55575;SDS011;41437;45.478;9.116;2022-12-08T15:31:41;37.88;;;25.83;;
55575;SDS011;41437;45.478;9.116;2022-12-08T15:34:43;41.95;;;26.38;;
55575;SDS011;41437;45.478;9.116;2022-12-08T15:37:45;44.20;;;27.73;;
55575;SDS011;41437;45.478;9.116;2022-12-08T15:40:47;41.53;;;27.85;;
55575;SDS011;41437;45.478;9.116;2022-12-08T15:43:51;41.70;;;26.80;;
55575;SDS011;41437;45.478;9.116;2022-12-08T15:46:53;44.30;;;27.08;;
55575;SDS011;41437;45.478;9.116;2022-12-08T15:49:55;42.35;;;28.23;;
55575;SDS011;41437;45.478;9.116;2022-12-08T15:52:57;42.10;;;27.75;;
55575;SDS011;41437;45.478;9.116;2022-12-08T15:55:59;44.95;;;28.88;;
55575;SDS011;41437;45.478;9.116;2022-12-08T15:59:09;43.58;;;28.67;;
55575;SDS011;41437;45.478;9.116;2022-12-08T16:02:15;43.17;;;29.63;;
55575;SDS011;41437;45.478;9.116;2022-12-08T16:05:17;48.92;;;31.63;;
55575;SDS011;41437;45.478;9.116;2022-12-08T16:08:18;44.78;;;30.55;;
55575;SDS011;41437;45.478;9.116;2022-12-08T16:11:20;46.97;;;31.92;;
55575;SDS011;41437;45.478;9.116;2022-12-08T16:14:41;47.35;;;32.50;;
55575;SDS011;41437;45.478;9.116;2022-12-08T16:17:43;50.33;;;32.70;;
55575;SDS011;41437;45.478;9.116;2022-12-08T16:20:45;48.05;;;33.05;;
55575;SDS011;41437;45.478;9.116;2022-12-08T16:23:47;52.50;;;34.75;;
55575;SDS011;41437;45.478;9.116;2022-12-08T16:26:49;49.38;;;32.83;;
55575;SDS011;41437;45.478;9.116;2022-12-08T16:29:54;49.95;;;34.40;;
55575;SDS011;41437;45.478;9.116;2022-12-08T16:32:56;48.78;;;33.30;;
55575;SDS011;41437;45.478;9.116;2022-12-08T16:35:58;49.17;;;34.28;;
55575;SDS011;41437;45.478;9.116;2022-12-08T16:39:00;48.80;;;32.58;;
55575;SDS011;41437;45.478;9.116;2022-12-08T16:42:01;46.90;;;32.67;;
55575;SDS011;41437;45.478;9.116;2022-12-08T16:45:23;45.55;;;31.85;;
55575;SDS011;41437;45.478;9.116;2022-12-08T16:48:26;51.95;;;32.30;;
55575;SDS011;41437;45.478;9.116;2022-12-08T16:51:28;45.42;;;31.67;;
55575;SDS011;41437;45.478;9.116;2022-12-08T16:54:30;45.97;;;31.98;;
55575;SDS011;41437;45.478;9.116;2022-12-08T16:57:31;41.35;;;29.23;;
55575;SDS011;41437;45.478;9.116;2022-12-08T17:00:34;48.42;;;31.83;;
55575;SDS011;41437;45.478;9.116;2022-12-08T17:03:36;46.47;;;30.73;;
55575;SDS011;41437;45.478;9.116;2022-12-08T17:06:38;45.90;;;30.92;;
55575;SDS011;41437;45.478;9.116;2022-12-08T17:09:40;45.00;;;30.05;;
55575;SDS011;41437;45.478;9.116;2022-12-08T17:12:41;42.30;;;29.35;;
55575;SDS011;41437;45.478;9.116;2022-12-08T17:15:45;43.75;;;29.13;;
55575;SDS011;41437;45.478;9.116;2022-12-08T17:18:47;43.80;;;30.85;;
55575;SDS011;41437;45.478;9.116;2022-12-08T17:21:49;43.90;;;30.58;;
55575;SDS011;41437;45.478;9.116;2022-12-08T17:24:50;46.03;;;31.92;;
55575;SDS011;41437;45.478;9.116;2022-12-08T17:27:52;45.45;;;31.52;;
55575;SDS011;41437;45.478;9.116;2022-12-08T17:30:56;45.92;;;30.63;;
55575;SDS011;41437;45.478;9.116;2022-12-08T17:33:59;42.13;;;29.85;;
55575;SDS011;41437;45.478;9.116;2022-12-08T17:37:01;42.53;;;29.25;;
55575;SDS011;41437;45.478;9.116;2022-12-08T17:40:03;40.80;;;28.23;;
55575;SDS011;41437;45.478;9.116;2022-12-08T17:43:06;41.30;;;28.67;;
55575;SDS011;41437;45.478;9.116;2022-12-08T17:46:09;40.03;;;29.00;;
55575;SDS011;41437;45.478;9.116;2022-12-08T17:49:11;43.63;;;29.77;;
55575;SDS011;41437;45.478;9.116;2022-12-08T17:52:16;46.33;;;32.30;;
55575;SDS011;41437;45.478;9.116;2022-12-08T17:55:18;44.30;;;31.67;;
55575;SDS011;41437;45.478;9.116;2022-12-08T17:58:20;45.58;;;31.70;;
55575;SDS011;41437;45.478;9.116;2022-12-08T18:01:25;44.22;;;30.70;;
55575;SDS011;41437;45.478;9.116;2022-12-08T18:04:27;46.67;;;31.85;;
55575;SDS011;41437;45.478;9.116;2022-12-08T18:07:29;43.92;;;30.80;;
55575;SDS011;41437;45.478;9.116;2022-12-08T18:10:31;43.63;;;31.05;;
55575;SDS011;41437;45.478;9.116;2022-12-08T18:13:32;45.88;;;31.20;;
55575;SDS011;41437;45.478;9.116;2022-12-08T18:16:36;49.53;;;32.72;;
55575;SDS011;41437;45.478;9.116;2022-12-08T18:19:40;43.83;;;30.60;;